sensor_id;sensor_type;location;lat;lon;timestamp;temperature;humidity
3648;DHT22;1840;48.892;15.312;2023-03-20T00:02:00;4.70;94.00
3648;DHT22;1840;48.892;15.312;2023-03-20T00:04:28;4.70;93.90
3648;DHT22;1840;48.892;15.312;2023-03-20T00:06:57;4.70;94.00
3648;DHT22;1840;48.892;15.312;2023-03-20T00:09:25;4.80;94.10
3648;DHT22;1840;48.892;15.312;2023-03-20T00:11:54;4.70;94.00
3648;DHT22;1840;48.892;15.312;2023-03-20T00:14:23;4.60;94.00
3648;DHT22;1840;48.892;15.312;2023-03-20T00:16:53;4.60;94.20
3648;DHT22;1840;48.892;15.312;2023-03-20T00:19:22;4.60;94.40
3648;DHT22;1840;48.892;15.312;2023-03-20T00:21:52;4.50;94.20
3648;DHT22;1840;48.892;15.312;2023-03-20T00:24:21;4.40;94.20
3648;DHT22;1840;48.892;15.312;2023-03-20T00:26:51;4.50;94.50
3648;DHT22;1840;48.892;15.312;2023-03-20T00:29:22;4.40;94.10
3648;DHT22;1840;48.892;15.312;2023-03-20T00:31:50;4.30;94.50
3648;DHT22;1840;48.892;15.312;2023-03-20T00:34:22;4.40;94.40
3648;DHT22;1840;48.892;15.312;2023-03-20T00:36:51;4.40;94.40
3648;DHT22;1840;48.892;15.312;2023-03-20T00:39:20;4.30;94.50
3648;DHT22;1840;48.892;15.312;2023-03-20T00:41:49;4.30;94.50
3648;DHT22;1840;48.892;15.312;2023-03-20T00:44:21;4.40;94.60
3648;DHT22;1840;48.892;15.312;2023-03-20T00:46:52;4.40;94.70
3648;DHT22;1840;48.892;15.312;2023-03-20T00:49:25;4.10;94.60
3648;DHT22;1840;48.892;15.312;2023-03-20T00:51:54;4.10;95.10
3648;DHT22;1840;48.892;15.312;2023-03-20T00:54:22;4.10;95.00
3648;DHT22;1840;48.892;15.312;2023-03-20T00:56:54;4.30;95.10
3648;DHT22;1840;48.892;15.312;2023-03-20T00:59:25;4.20;95.00
3648;DHT22;1840;48.892;15.312;2023-03-20T01:01:53;4.30;95.20
3648;DHT22;1840;48.892;15.312;2023-03-20T01:04:24;4.30;95.10
3648;DHT22;1840;48.892;15.312;2023-03-20T01:06:54;4.40;95.50
3648;DHT22;1840;48.892;15.312;2023-03-20T01:09:22;4.50;95.30
3648;DHT22;1840;48.892;15.312;2023-03-20T01:11:50;4.60;95.40
3648;DHT22;1840;48.892;15.312;2023-03-20T01:14:19;4.70;95.60
3648;DHT22;1840;48.892;15.312;2023-03-20T01:16:47;4.70;95.40
3648;DHT22;1840;48.892;15.312;2023-03-20T01:19:15;4.80;95.50
3648;DHT22;1840;48.892;15.312;2023-03-20T01:21:45;4.80;95.60
3648;DHT22;1840;48.892;15.312;2023-03-20T01:24:13;4.90;95.90
3648;DHT22;1840;48.892;15.312;2023-03-20T01:26:42;5.00;96.00
3648;DHT22;1840;48.892;15.312;2023-03-20T01:29:17;5.00;95.90
3648;DHT22;1840;48.892;15.312;2023-03-20T01:31:45;5.10;95.90
3648;DHT22;1840;48.892;15.312;2023-03-20T01:34:14;5.10;95.80
3648;DHT22;1840;48.892;15.312;2023-03-20T01:36:48;5.10;95.90
3648;DHT22;1840;48.892;15.312;2023-03-20T01:39:16;4.90;95.70
3648;DHT22;1840;48.892;15.312;2023-03-20T01:41:47;4.90;96.20
3648;DHT22;1840;48.892;15.312;2023-03-20T01:44:19;4.90;96.10
3648;DHT22;1840;48.892;15.312;2023-03-20T01:46:48;4.90;96.30
3648;DHT22;1840;48.892;15.312;2023-03-20T01:52:23;4.80;96.30
3648;DHT22;1840;48.892;15.312;2023-03-20T01:54:51;4.80;96.30
3648;DHT22;1840;48.892;15.312;2023-03-20T01:57:21;4.70;96.20
3648;DHT22;1840;48.892;15.312;2023-03-20T01:59:54;4.60;96.60
3648;DHT22;1840;48.892;15.312;2023-03-20T02:02:27;4.70;96.10
3648;DHT22;1840;48.892;15.312;2023-03-20T02:04:58;4.60;96.40
3648;DHT22;1840;48.892;15.312;2023-03-20T02:07:30;4.40;96.80
3648;DHT22;1840;48.892;15.312;2023-03-20T02:12:28;4.40;97.00
3648;DHT22;1840;48.892;15.312;2023-03-20T02:14:56;4.60;97.00
3648;DHT22;1840;48.892;15.312;2023-03-20T02:17:25;4.70;96.90
3648;DHT22;1840;48.892;15.312;2023-03-20T02:20:00;4.80;96.70
3648;DHT22;1840;48.892;15.312;2023-03-20T02:29:09;5.00;96.80
3648;DHT22;1840;48.892;15.312;2023-03-20T02:38:12;5.00;96.70
3648;DHT22;1840;48.892;15.312;2023-03-20T02:40:45;4.90;96.70
3648;DHT22;1840;48.892;15.312;2023-03-20T02:43:19;4.90;96.70
3648;DHT22;1840;48.892;15.312;2023-03-20T02:45:52;4.90;96.70
3648;DHT22;1840;48.892;15.312;2023-03-20T02:48:32;4.80;96.60
3648;DHT22;1840;48.892;15.312;2023-03-20T02:51:03;4.70;96.60
3648;DHT22;1840;48.892;15.312;2023-03-20T02:53:41;4.70;97.00
3648;DHT22;1840;48.892;15.312;2023-03-20T02:56:16;4.70;96.70
3648;DHT22;1840;48.892;15.312;2023-03-20T02:58:49;4.60;97.00
3648;DHT22;1840;48.892;15.312;2023-03-20T03:01:20;4.70;97.10
3648;DHT22;1840;48.892;15.312;2023-03-20T03:03:54;4.70;97.10
3648;DHT22;1840;48.892;15.312;2023-03-20T03:06:25;4.80;96.90
3648;DHT22;1840;48.892;15.312;2023-03-20T03:08:59;4.80;97.10
3648;DHT22;1840;48.892;15.312;2023-03-20T03:11:33;4.70;97.40
3648;DHT22;1840;48.892;15.312;2023-03-20T03:14:03;4.60;97.30
3648;DHT22;1840;48.892;15.312;2023-03-20T03:16:34;4.80;97.20
3648;DHT22;1840;48.892;15.312;2023-03-20T03:19:06;4.80;97.10
3648;DHT22;1840;48.892;15.312;2023-03-20T03:21:36;4.80;97.30
3648;DHT22;1840;48.892;15.312;2023-03-20T03:24:22;4.80;97.30
3648;DHT22;1840;48.892;15.312;2023-03-20T03:27:14;4.80;97.40
3648;DHT22;1840;48.892;15.312;2023-03-20T03:29:48;4.90;97.40
3648;DHT22;1840;48.892;15.312;2023-03-20T03:32:37;4.80;97.40
3648;DHT22;1840;48.892;15.312;2023-03-20T03:35:14;5.00;97.60
3648;DHT22;1840;48.892;15.312;2023-03-20T03:37:51;5.10;97.40
3648;DHT22;1840;48.892;15.312;2023-03-20T03:40:30;4.90;97.60
3648;DHT22;1840;48.892;15.312;2023-03-20T03:43:05;4.90;97.20
3648;DHT22;1840;48.892;15.312;2023-03-20T03:45:37;4.90;97.60
3648;DHT22;1840;48.892;15.312;2023-03-20T03:48:11;5.00;97.40
3648;DHT22;1840;48.892;15.312;2023-03-20T03:50:43;5.00;97.40
3648;DHT22;1840;48.892;15.312;2023-03-20T03:53:18;4.90;97.50
3648;DHT22;1840;48.892;15.312;2023-03-20T03:55:50;4.90;97.30
3648;DHT22;1840;48.892;15.312;2023-03-20T03:58:22;4.70;97.60
3648;DHT22;1840;48.892;15.312;2023-03-20T04:00:52;4.80;97.90
3648;DHT22;1840;48.892;15.312;2023-03-20T04:03:24;4.90;97.80
3648;DHT22;1840;48.892;15.312;2023-03-20T04:05:56;4.90;97.50
3648;DHT22;1840;48.892;15.312;2023-03-20T04:08:25;4.80;97.60
3648;DHT22;1840;48.892;15.312;2023-03-20T04:10:54;4.80;97.70
3648;DHT22;1840;48.892;15.312;2023-03-20T04:13:23;4.80;97.70
3648;DHT22;1840;48.892;15.312;2023-03-20T04:15:51;4.80;97.60
3648;DHT22;1840;48.892;15.312;2023-03-20T04:18:19;4.70;97.60
3648;DHT22;1840;48.892;15.312;2023-03-20T04:20:48;4.70;97.60
3648;DHT22;1840;48.892;15.312;2023-03-20T04:23:17;4.70;97.60
3648;DHT22;1840;48.892;15.312;2023-03-20T04:25:46;4.70;97.40
3648;DHT22;1840;48.892;15.312;2023-03-20T04:28:15;4.50;97.20
3648;DHT22;1840;48.892;15.312;2023-03-20T04:30:51;4.40;97.20
3648;DHT22;1840;48.892;15.312;2023-03-20T04:33:19;4.20;97.00
3648;DHT22;1840;48.892;15.312;2023-03-20T04:35:47;4.10;96.90
3648;DHT22;1840;48.892;15.312;2023-03-20T04:38:16;3.90;97.20
3648;DHT22;1840;48.892;15.312;2023-03-20T04:40:45;3.80;97.20
3648;DHT22;1840;48.892;15.312;2023-03-20T04:43:14;3.80;97.20
3648;DHT22;1840;48.892;15.312;2023-03-20T04:45:43;3.70;97.20
3648;DHT22;1840;48.892;15.312;2023-03-20T04:48:11;3.70;97.10
3648;DHT22;1840;48.892;15.312;2023-03-20T04:50:39;3.60;97.10
3648;DHT22;1840;48.892;15.312;2023-03-20T04:53:07;3.50;97.20
3648;DHT22;1840;48.892;15.312;2023-03-20T04:55:35;3.40;97.60
3648;DHT22;1840;48.892;15.312;2023-03-20T04:58:03;3.40;97.40
3648;DHT22;1840;48.892;15.312;2023-03-20T05:00:33;3.40;97.70
3648;DHT22;1840;48.892;15.312;2023-03-20T05:03:01;3.30;97.90
3648;DHT22;1840;48.892;15.312;2023-03-20T05:05:29;3.40;98.00
3648;DHT22;1840;48.892;15.312;2023-03-20T05:07:57;3.60;98.20
3648;DHT22;1840;48.892;15.312;2023-03-20T05:10:25;3.60;98.50
3648;DHT22;1840;48.892;15.312;2023-03-20T05:12:53;3.80;99.10
3648;DHT22;1840;48.892;15.312;2023-03-20T05:15:21;4.00;98.70
3648;DHT22;1840;48.892;15.312;2023-03-20T05:17:51;4.10;98.90
3648;DHT22;1840;48.892;15.312;2023-03-20T05:20:19;4.20;98.80
3648;DHT22;1840;48.892;15.312;2023-03-20T05:22:48;4.30;99.10
3648;DHT22;1840;48.892;15.312;2023-03-20T05:25:17;4.50;98.80
3648;DHT22;1840;48.892;15.312;2023-03-20T05:27:45;4.70;98.90
3648;DHT22;1840;48.892;15.312;2023-03-20T05:30:14;4.70;98.90
3648;DHT22;1840;48.892;15.312;2023-03-20T05:32:42;4.70;99.00
3648;DHT22;1840;48.892;15.312;2023-03-20T05:35:11;4.70;98.80
3648;DHT22;1840;48.892;15.312;2023-03-20T05:37:39;4.60;99.10
3648;DHT22;1840;48.892;15.312;2023-03-20T05:40:11;4.60;99.20
3648;DHT22;1840;48.892;15.312;2023-03-20T05:42:39;4.60;98.80
3648;DHT22;1840;48.892;15.312;2023-03-20T05:45:08;4.50;98.80
3648;DHT22;1840;48.892;15.312;2023-03-20T05:47:36;4.50;98.50
3648;DHT22;1840;48.892;15.312;2023-03-20T05:50:04;4.50;98.40
3648;DHT22;1840;48.892;15.312;2023-03-20T05:52:34;4.40;98.30
3648;DHT22;1840;48.892;15.312;2023-03-20T05:55:02;4.30;98.30
3648;DHT22;1840;48.892;15.312;2023-03-20T05:57:30;4.30;98.20
3648;DHT22;1840;48.892;15.312;2023-03-20T05:59:58;4.20;98.10
3648;DHT22;1840;48.892;15.312;2023-03-20T06:02:26;4.10;98.50
3648;DHT22;1840;48.892;15.312;2023-03-20T06:04:54;4.00;98.70
3648;DHT22;1840;48.892;15.312;2023-03-20T06:07:23;4.00;98.60
3648;DHT22;1840;48.892;15.312;2023-03-20T06:09:52;4.00;98.80
3648;DHT22;1840;48.892;15.312;2023-03-20T06:12:20;4.00;98.50
3648;DHT22;1840;48.892;15.312;2023-03-20T06:14:48;3.90;98.50
3648;DHT22;1840;48.892;15.312;2023-03-20T06:17:16;3.70;98.50
3648;DHT22;1840;48.892;15.312;2023-03-20T06:19:44;3.90;98.90
3648;DHT22;1840;48.892;15.312;2023-03-20T06:22:13;4.10;98.60
3648;DHT22;1840;48.892;15.312;2023-03-20T06:24:41;4.30;98.90
3648;DHT22;1840;48.892;15.312;2023-03-20T06:27:11;4.30;99.10
3648;DHT22;1840;48.892;15.312;2023-03-20T06:29:39;4.60;99.70
3648;DHT22;1840;48.892;15.312;2023-03-20T06:32:07;5.20;99.90
3648;DHT22;1840;48.892;15.312;2023-03-20T06:34:36;5.40;99.30
3648;DHT22;1840;48.892;15.312;2023-03-20T06:37:04;5.80;99.90
3648;DHT22;1840;48.892;15.312;2023-03-20T06:39:32;6.50;99.40
3648;DHT22;1840;48.892;15.312;2023-03-20T06:42:00;7.00;98.90
3648;DHT22;1840;48.892;15.312;2023-03-20T06:44:29;7.80;98.70
3648;DHT22;1840;48.892;15.312;2023-03-20T06:46:57;8.50;98.10
3648;DHT22;1840;48.892;15.312;2023-03-20T06:49:25;8.60;97.30
3648;DHT22;1840;48.892;15.312;2023-03-20T06:51:53;8.80;96.30
3648;DHT22;1840;48.892;15.312;2023-03-20T06:54:21;9.30;96.30
3648;DHT22;1840;48.892;15.312;2023-03-20T06:56:49;9.50;95.40
3648;DHT22;1840;48.892;15.312;2023-03-20T06:59:17;10.00;95.40
3648;DHT22;1840;48.892;15.312;2023-03-20T07:01:47;10.30;94.60
3648;DHT22;1840;48.892;15.312;2023-03-20T07:04:15;10.50;94.80
3648;DHT22;1840;48.892;15.312;2023-03-20T07:06:43;10.90;94.30
3648;DHT22;1840;48.892;15.312;2023-03-20T07:09:11;10.80;94.10
3648;DHT22;1840;48.892;15.312;2023-03-20T07:11:38;11.00;93.60
3648;DHT22;1840;48.892;15.312;2023-03-20T07:14:07;11.20;93.40
3648;DHT22;1840;48.892;15.312;2023-03-20T07:16:35;11.30;93.80
3648;DHT22;1840;48.892;15.312;2023-03-20T07:19:04;11.50;94.00
3648;DHT22;1840;48.892;15.312;2023-03-20T07:21:33;11.70;93.30
3648;DHT22;1840;48.892;15.312;2023-03-20T07:24:01;11.80;92.90
3648;DHT22;1840;48.892;15.312;2023-03-20T07:26:29;12.00;93.00
3648;DHT22;1840;48.892;15.312;2023-03-20T07:28:57;11.80;93.20
3648;DHT22;1840;48.892;15.312;2023-03-20T07:31:26;11.90;93.20
3648;DHT22;1840;48.892;15.312;2023-03-20T07:33:57;11.90;93.30
3648;DHT22;1840;48.892;15.312;2023-03-20T07:36:26;11.70;94.10
3648;DHT22;1840;48.892;15.312;2023-03-20T07:38:54;12.00;94.10
3648;DHT22;1840;48.892;15.312;2023-03-20T07:41:22;12.40;93.40
3648;DHT22;1840;48.892;15.312;2023-03-20T07:43:50;12.30;92.90
3648;DHT22;1840;48.892;15.312;2023-03-20T07:46:18;12.00;93.20
3648;DHT22;1840;48.892;15.312;2023-03-20T07:48:46;12.30;93.30
3648;DHT22;1840;48.892;15.312;2023-03-20T07:51:14;11.90;93.50
3648;DHT22;1840;48.892;15.312;2023-03-20T07:53:43;12.20;93.20
3648;DHT22;1840;48.892;15.312;2023-03-20T07:56:11;12.60;92.20
3648;DHT22;1840;48.892;15.312;2023-03-20T07:58:39;12.30;92.20
3648;DHT22;1840;48.892;15.312;2023-03-20T08:01:08;12.20;93.30
3648;DHT22;1840;48.892;15.312;2023-03-20T08:03:36;12.10;93.70
3648;DHT22;1840;48.892;15.312;2023-03-20T08:06:06;12.60;92.00
3648;DHT22;1840;48.892;15.312;2023-03-20T08:08:35;12.60;92.60
3648;DHT22;1840;48.892;15.312;2023-03-20T08:11:05;12.60;93.00
3648;DHT22;1840;48.892;15.312;2023-03-20T08:13:33;12.60;92.80
3648;DHT22;1840;48.892;15.312;2023-03-20T08:16:01;12.10;92.60
3648;DHT22;1840;48.892;15.312;2023-03-20T08:18:29;11.70;93.50
3648;DHT22;1840;48.892;15.312;2023-03-20T08:20:57;12.30;92.80
3648;DHT22;1840;48.892;15.312;2023-03-20T08:23:25;12.00;92.60
3648;DHT22;1840;48.892;15.312;2023-03-20T08:25:53;11.40;92.40
3648;DHT22;1840;48.892;15.312;2023-03-20T08:28:23;11.40;93.50
3648;DHT22;1840;48.892;15.312;2023-03-20T08:31:11;12.20;92.90
3648;DHT22;1840;48.892;15.312;2023-03-20T08:33:40;12.30;92.20
3648;DHT22;1840;48.892;15.312;2023-03-20T08:36:08;12.10;92.30
3648;DHT22;1840;48.892;15.312;2023-03-20T08:38:36;12.60;92.30
3648;DHT22;1840;48.892;15.312;2023-03-20T08:41:05;12.50;91.60
3648;DHT22;1840;48.892;15.312;2023-03-20T08:43:35;12.50;92.00
3648;DHT22;1840;48.892;15.312;2023-03-20T08:46:03;12.80;92.10
3648;DHT22;1840;48.892;15.312;2023-03-20T08:48:32;12.70;91.70
3648;DHT22;1840;48.892;15.312;2023-03-20T08:51:00;12.60;91.90
3648;DHT22;1840;48.892;15.312;2023-03-20T08:53:28;12.60;91.70
3648;DHT22;1840;48.892;15.312;2023-03-20T08:55:56;12.60;91.50
3648;DHT22;1840;48.892;15.312;2023-03-20T08:58:24;12.70;91.20
3648;DHT22;1840;48.892;15.312;2023-03-20T09:00:54;13.00;90.80
3648;DHT22;1840;48.892;15.312;2023-03-20T09:03:22;12.80;91.50
3648;DHT22;1840;48.892;15.312;2023-03-20T09:05:51;13.10;90.80
3648;DHT22;1840;48.892;15.312;2023-03-20T09:08:19;13.20;90.40
3648;DHT22;1840;48.892;15.312;2023-03-20T09:10:47;13.60;90.00
3648;DHT22;1840;48.892;15.312;2023-03-20T09:13:19;13.90;90.10
3648;DHT22;1840;48.892;15.312;2023-03-20T09:15:55;14.20;90.00
3648;DHT22;1840;48.892;15.312;2023-03-20T09:18:24;14.50;88.80
3648;DHT22;1840;48.892;15.312;2023-03-20T09:20:52;14.50;88.40
3648;DHT22;1840;48.892;15.312;2023-03-20T09:23:22;14.10;88.60
3648;DHT22;1840;48.892;15.312;2023-03-20T09:25:50;14.20;88.30
3648;DHT22;1840;48.892;15.312;2023-03-20T09:28:18;13.70;87.30
3648;DHT22;1840;48.892;15.312;2023-03-20T09:30:46;13.00;88.50
3648;DHT22;1840;48.892;15.312;2023-03-20T09:33:16;12.20;89.60
3648;DHT22;1840;48.892;15.312;2023-03-20T09:35:44;12.20;90.60
3648;DHT22;1840;48.892;15.312;2023-03-20T09:38:12;12.40;90.80
3648;DHT22;1840;48.892;15.312;2023-03-20T09:40:50;12.20;90.30
3648;DHT22;1840;48.892;15.312;2023-03-20T09:43:39;12.00;91.00
3648;DHT22;1840;48.892;15.312;2023-03-20T09:46:20;11.90;89.80
3648;DHT22;1840;48.892;15.312;2023-03-20T09:48:54;11.60;90.00
3648;DHT22;1840;48.892;15.312;2023-03-20T09:51:30;11.60;90.00
3648;DHT22;1840;48.892;15.312;2023-03-20T09:54:04;11.40;90.40
3648;DHT22;1840;48.892;15.312;2023-03-20T09:56:33;11.80;90.90
3648;DHT22;1840;48.892;15.312;2023-03-20T09:59:03;12.20;90.50
3648;DHT22;1840;48.892;15.312;2023-03-20T10:01:44;12.60;90.00
3648;DHT22;1840;48.892;15.312;2023-03-20T10:04:16;12.50;89.70
3648;DHT22;1840;48.892;15.312;2023-03-20T10:06:45;11.90;90.30
3648;DHT22;1840;48.892;15.312;2023-03-20T10:09:15;11.90;90.60
3648;DHT22;1840;48.892;15.312;2023-03-20T10:12:05;12.20;90.40
3648;DHT22;1840;48.892;15.312;2023-03-20T10:14:44;12.50;90.30
3648;DHT22;1840;48.892;15.312;2023-03-20T10:17:25;12.20;88.30
3648;DHT22;1840;48.892;15.312;2023-03-20T10:19:59;11.60;89.50
3648;DHT22;1840;48.892;15.312;2023-03-20T10:22:32;11.40;90.50
3648;DHT22;1840;48.892;15.312;2023-03-20T10:25:05;11.40;90.20
3648;DHT22;1840;48.892;15.312;2023-03-20T10:27:38;11.60;90.50
3648;DHT22;1840;48.892;15.312;2023-03-20T10:30:20;12.20;90.10
3648;DHT22;1840;48.892;15.312;2023-03-20T10:32:55;12.80;90.10
3648;DHT22;1840;48.892;15.312;2023-03-20T10:35:36;13.50;87.60
3648;DHT22;1840;48.892;15.312;2023-03-20T10:38:16;13.40;87.50
3648;DHT22;1840;48.892;15.312;2023-03-20T10:40:48;13.40;87.00
3648;DHT22;1840;48.892;15.312;2023-03-20T10:43:18;13.50;87.30
3648;DHT22;1840;48.892;15.312;2023-03-20T10:45:49;13.70;86.30
3648;DHT22;1840;48.892;15.312;2023-03-20T10:48:22;14.30;84.30
3648;DHT22;1840;48.892;15.312;2023-03-20T10:50:55;14.50;87.60
3648;DHT22;1840;48.892;15.312;2023-03-20T10:53:29;15.10;85.00
3648;DHT22;1840;48.892;15.312;2023-03-20T10:56:01;15.00;84.60
3648;DHT22;1840;48.892;15.312;2023-03-20T10:58:32;13.90;84.30
3648;DHT22;1840;48.892;15.312;2023-03-20T11:01:01;13.50;87.00
3648;DHT22;1840;48.892;15.312;2023-03-20T11:03:31;13.10;86.90
3648;DHT22;1840;48.892;15.312;2023-03-20T11:06:15;13.20;87.30
3648;DHT22;1840;48.892;15.312;2023-03-20T11:08:47;13.20;85.40
3648;DHT22;1840;48.892;15.312;2023-03-20T11:11:21;13.20;88.70
3648;DHT22;1840;48.892;15.312;2023-03-20T11:13:50;13.90;86.20
3648;DHT22;1840;48.892;15.312;2023-03-20T11:16:20;13.80;85.50
3648;DHT22;1840;48.892;15.312;2023-03-20T11:18:51;13.70;85.60
3648;DHT22;1840;48.892;15.312;2023-03-20T11:21:22;13.70;85.60
3648;DHT22;1840;48.892;15.312;2023-03-20T11:23:51;14.00;84.10
3648;DHT22;1840;48.892;15.312;2023-03-20T11:26:32;13.80;85.90
3648;DHT22;1840;48.892;15.312;2023-03-20T11:29:01;14.10;85.60
3648;DHT22;1840;48.892;15.312;2023-03-20T11:31:34;14.90;83.50
3648;DHT22;1840;48.892;15.312;2023-03-20T11:34:18;14.80;82.90
3648;DHT22;1840;48.892;15.312;2023-03-20T11:36:55;14.60;82.50
3648;DHT22;1840;48.892;15.312;2023-03-20T11:39:35;14.80;82.70
3648;DHT22;1840;48.892;15.312;2023-03-20T11:42:21;14.50;83.00
3648;DHT22;1840;48.892;15.312;2023-03-20T11:45:02;14.50;85.00
3648;DHT22;1840;48.892;15.312;2023-03-20T11:47:33;14.60;84.00
3648;DHT22;1840;48.892;15.312;2023-03-20T11:50:04;14.50;83.90
3648;DHT22;1840;48.892;15.312;2023-03-20T11:52:35;14.40;82.70
3648;DHT22;1840;48.892;15.312;2023-03-20T11:55:06;14.30;84.40
3648;DHT22;1840;48.892;15.312;2023-03-20T11:57:48;14.80;83.40
3648;DHT22;1840;48.892;15.312;2023-03-20T12:00:18;15.20;83.00
3648;DHT22;1840;48.892;15.312;2023-03-20T12:02:46;16.10;82.00
3648;DHT22;1840;48.892;15.312;2023-03-20T12:05:27;16.40;80.80
3648;DHT22;1840;48.892;15.312;2023-03-20T12:08:00;16.90;80.90
3648;DHT22;1840;48.892;15.312;2023-03-20T12:10:33;16.90;82.00
3648;DHT22;1840;48.892;15.312;2023-03-20T12:13:08;16.30;80.70
3648;DHT22;1840;48.892;15.312;2023-03-20T12:15:40;16.30;80.40
3648;DHT22;1840;48.892;15.312;2023-03-20T12:18:13;15.90;81.30
3648;DHT22;1840;48.892;15.312;2023-03-20T12:20:48;15.50;81.70
3648;DHT22;1840;48.892;15.312;2023-03-20T12:23:27;15.30;80.90
3648;DHT22;1840;48.892;15.312;2023-03-20T12:26:02;15.50;79.90
3648;DHT22;1840;48.892;15.312;2023-03-20T12:28:35;15.20;79.00
3648;DHT22;1840;48.892;15.312;2023-03-20T12:31:14;15.30;80.70
3648;DHT22;1840;48.892;15.312;2023-03-20T12:33:49;15.20;80.40
3648;DHT22;1840;48.892;15.312;2023-03-20T12:36:25;15.60;79.90
3648;DHT22;1840;48.892;15.312;2023-03-20T12:38:57;15.60;80.30
3648;DHT22;1840;48.892;15.312;2023-03-20T12:41:28;15.60;79.00
3648;DHT22;1840;48.892;15.312;2023-03-20T12:44:17;15.10;80.10
3648;DHT22;1840;48.892;15.312;2023-03-20T12:46:52;15.10;80.70
3648;DHT22;1840;48.892;15.312;2023-03-20T12:49:33;14.90;79.60
3648;DHT22;1840;48.892;15.312;2023-03-20T12:52:11;14.70;79.80
3648;DHT22;1840;48.892;15.312;2023-03-20T12:55:00;14.50;81.50
3648;DHT22;1840;48.892;15.312;2023-03-20T12:57:38;14.40;81.50
3648;DHT22;1840;48.892;15.312;2023-03-20T13:00:18;14.10;80.90
3648;DHT22;1840;48.892;15.312;2023-03-20T13:02:55;14.10;81.90
3648;DHT22;1840;48.892;15.312;2023-03-20T13:05:35;13.90;83.40
3648;DHT22;1840;48.892;15.312;2023-03-20T13:11:05;13.90;81.70
3648;DHT22;1840;48.892;15.312;2023-03-20T13:13:43;14.20;80.80
3648;DHT22;1840;48.892;15.312;2023-03-20T13:16:19;14.50;79.20
3648;DHT22;1840;48.892;15.312;2023-03-20T13:18:57;14.30;80.40
3648;DHT22;1840;48.892;15.312;2023-03-20T13:21:31;14.20;77.30
3648;DHT22;1840;48.892;15.312;2023-03-20T13:24:15;14.20;78.40
3648;DHT22;1840;48.892;15.312;2023-03-20T13:26:52;14.30;78.80
3648;DHT22;1840;48.892;15.312;2023-03-20T13:29:28;14.20;76.80
3648;DHT22;1840;48.892;15.312;2023-03-20T13:32:05;14.10;80.20
3648;DHT22;1840;48.892;15.312;2023-03-20T13:34:52;13.80;77.30
3648;DHT22;1840;48.892;15.312;2023-03-20T13:37:26;13.90;79.00
3648;DHT22;1840;48.892;15.312;2023-03-20T13:40:02;13.90;77.30
3648;DHT22;1840;48.892;15.312;2023-03-20T13:42:36;13.80;78.90
3648;DHT22;1840;48.892;15.312;2023-03-20T13:45:18;13.90;78.50
3648;DHT22;1840;48.892;15.312;2023-03-20T13:47:49;13.90;77.30
3648;DHT22;1840;48.892;15.312;2023-03-20T13:50:33;13.80;75.90
3648;DHT22;1840;48.892;15.312;2023-03-20T13:53:12;13.70;76.90
3648;DHT22;1840;48.892;15.312;2023-03-20T13:55:50;13.50;78.30
3648;DHT22;1840;48.892;15.312;2023-03-20T13:58:32;13.40;78.70
3648;DHT22;1840;48.892;15.312;2023-03-20T14:01:06;13.30;79.50
3648;DHT22;1840;48.892;15.312;2023-03-20T14:03:42;13.30;80.00
3648;DHT22;1840;48.892;15.312;2023-03-20T14:06:17;13.50;78.90
3648;DHT22;1840;48.892;15.312;2023-03-20T14:08:52;13.50;78.70
3648;DHT22;1840;48.892;15.312;2023-03-20T14:11:27;13.40;78.60
3648;DHT22;1840;48.892;15.312;2023-03-20T14:14:10;13.40;79.30
3648;DHT22;1840;48.892;15.312;2023-03-20T14:16:40;13.40;79.70
3648;DHT22;1840;48.892;15.312;2023-03-20T14:19:16;13.40;79.40
3648;DHT22;1840;48.892;15.312;2023-03-20T14:21:46;13.30;79.70
3648;DHT22;1840;48.892;15.312;2023-03-20T14:24:15;13.20;80.30
3648;DHT22;1840;48.892;15.312;2023-03-20T14:26:48;13.00;80.20
3648;DHT22;1840;48.892;15.312;2023-03-20T14:29:36;12.80;80.60
3648;DHT22;1840;48.892;15.312;2023-03-20T14:32:21;12.90;80.60
3648;DHT22;1840;48.892;15.312;2023-03-20T14:34:51;13.10;80.80
3648;DHT22;1840;48.892;15.312;2023-03-20T14:37:34;13.00;80.90
3648;DHT22;1840;48.892;15.312;2023-03-20T14:40:12;13.00;81.00
3648;DHT22;1840;48.892;15.312;2023-03-20T14:42:48;12.80;80.90
3648;DHT22;1840;48.892;15.312;2023-03-20T14:45:33;12.60;82.00
3648;DHT22;1840;48.892;15.312;2023-03-20T14:48:11;12.70;81.90
3648;DHT22;1840;48.892;15.312;2023-03-20T14:50:53;12.70;82.90
3648;DHT22;1840;48.892;15.312;2023-03-20T14:53:24;12.80;82.70
3648;DHT22;1840;48.892;15.312;2023-03-20T14:56:05;12.90;82.80
3648;DHT22;1840;48.892;15.312;2023-03-20T14:58:49;12.90;82.40
3648;DHT22;1840;48.892;15.312;2023-03-20T15:01:39;13.00;83.10
3648;DHT22;1840;48.892;15.312;2023-03-20T15:04:22;12.90;83.30
3648;DHT22;1840;48.892;15.312;2023-03-20T15:06:57;12.70;82.60
3648;DHT22;1840;48.892;15.312;2023-03-20T15:09:26;13.00;82.90
3648;DHT22;1840;48.892;15.312;2023-03-20T15:11:57;13.00;83.90
3648;DHT22;1840;48.892;15.312;2023-03-20T15:14:35;11.80;85.50
3648;DHT22;1840;48.892;15.312;2023-03-20T15:17:16;11.40;87.60
3648;DHT22;1840;48.892;15.312;2023-03-20T15:19:44;11.00;88.70
3648;DHT22;1840;48.892;15.312;2023-03-20T15:22:15;10.40;89.90
3648;DHT22;1840;48.892;15.312;2023-03-20T15:24:51;10.10;90.40
3648;DHT22;1840;48.892;15.312;2023-03-20T15:27:19;9.60;90.90
3648;DHT22;1840;48.892;15.312;2023-03-20T15:29:51;9.70;91.20
3648;DHT22;1840;48.892;15.312;2023-03-20T15:32:21;9.60;91.30
3648;DHT22;1840;48.892;15.312;2023-03-20T15:34:50;9.40;91.70
3648;DHT22;1840;48.892;15.312;2023-03-20T15:37:22;9.20;91.90
3648;DHT22;1840;48.892;15.312;2023-03-20T15:39:53;9.30;92.10
3648;DHT22;1840;48.892;15.312;2023-03-20T15:42:24;9.50;92.00
3648;DHT22;1840;48.892;15.312;2023-03-20T15:44:54;9.50;92.00
3648;DHT22;1840;48.892;15.312;2023-03-20T15:47:24;9.30;92.20
3648;DHT22;1840;48.892;15.312;2023-03-20T15:49:54;9.40;92.30
3648;DHT22;1840;48.892;15.312;2023-03-20T15:52:28;9.40;92.40
3648;DHT22;1840;48.892;15.312;2023-03-20T15:54:58;9.40;92.40
3648;DHT22;1840;48.892;15.312;2023-03-20T15:57:31;9.40;92.40
3648;DHT22;1840;48.892;15.312;2023-03-20T16:00:04;9.40;92.70
3648;DHT22;1840;48.892;15.312;2023-03-20T16:02:35;9.40;92.70
3648;DHT22;1840;48.892;15.312;2023-03-20T16:05:09;9.60;92.40
3648;DHT22;1840;48.892;15.312;2023-03-20T16:07:37;9.60;92.40
3648;DHT22;1840;48.892;15.312;2023-03-20T16:10:15;9.40;92.50
3648;DHT22;1840;48.892;15.312;2023-03-20T16:12:49;9.30;92.80
3648;DHT22;1840;48.892;15.312;2023-03-20T16:15:19;9.40;92.90
3648;DHT22;1840;48.892;15.312;2023-03-20T16:17:52;9.60;92.60
3648;DHT22;1840;48.892;15.312;2023-03-20T16:20:23;9.50;92.60
3648;DHT22;1840;48.892;15.312;2023-03-20T16:22:56;9.60;92.40
3648;DHT22;1840;48.892;15.312;2023-03-20T16:25:27;9.80;92.40
3648;DHT22;1840;48.892;15.312;2023-03-20T16:27:55;10.00;92.30
3648;DHT22;1840;48.892;15.312;2023-03-20T16:30:26;10.00;92.00
3648;DHT22;1840;48.892;15.312;2023-03-20T16:33:00;10.10;91.90
3648;DHT22;1840;48.892;15.312;2023-03-20T16:35:36;10.10;91.90
3648;DHT22;1840;48.892;15.312;2023-03-20T16:38:14;10.10;91.80
3648;DHT22;1840;48.892;15.312;2023-03-20T16:40:42;10.10;91.90
3648;DHT22;1840;48.892;15.312;2023-03-20T16:43:15;10.10;91.80
3648;DHT22;1840;48.892;15.312;2023-03-20T16:45:45;10.10;91.80